Anthony, Florida
Current Conditions -  °F | °C
As of 12:35 AM on Wednesday 22 Oct 2014 (Local Time) from KOCF Reporting Station
Clear Clear  
Wind Chill: 64°   Ceiling: Unl
Heat Index: 64°   Visibility: 10mi
Dew Point: 61°   Wind: 5mph
Humidity: 88%   Direction: 350°N
Pressure: 29.97"   Gusts: NA
Location:  29.29°N, 82.11°W
Report Text: KOCF 220435Z AUTO 35004KT 10SM CLR 18/16 A2997 RMK AO1
Loading
Personal Weather Stations






























Interactive Weather Map
Tropical Storm Tracking
New forecast layout! Learn more

10-Day Weather Forecast

Advertisements
Track Severe Weather on mobile